Time;durP1;ratioP1;P1;durP2;ratioP2;P2;SDS_P1;SDS_P2;PMS_P1;PMS_P2;Temp;Humidity;BMP_temperature;BMP_pressure;BME280_temperature;BME280_humidity;BME280_pressure;Samples;Min_cycle;Max_cycle;Signal;HPM_P1;HPM_P2
2022/07/21 00:01:08;;;;;;;15.80;14.27;;;19.50;99.90;;;;;;5033155;28;20238;-64
2022/07/21 00:03:34;;;;;;;16.03;14.33;;;19.50;99.90;;;;;;5045369;28;20876;-65
2022/07/21 00:06:00;;;;;;;14.63;13.20;;;19.50;99.90;;;;;;5054384;28;20175;-65
2022/07/21 00:08:26;;;;;;;17.40;15.90;;;19.60;99.90;;;;;;5044667;28;20182;-64
2022/07/21 00:10:52;;;;;;;16.23;14.63;;;19.60;99.90;;;;;;5034442;28;20172;-65
2022/07/21 00:13:18;;;;;;;15.30;13.27;;;19.60;99.90;;;;;;5042001;28;20178;-65
2022/07/21 00:15:44;;;;;;;15.90;14.30;;;19.70;99.90;;;;;;5054197;28;20199;-65
2022/07/21 00:18:10;;;;;;;14.07;12.68;;;19.70;99.90;;;;;;5047635;28;20194;-64
2022/07/21 00:20:36;;;;;;;13.47;12.17;;;19.60;99.90;;;;;;5033114;28;20199;-65
2022/07/21 00:23:02;;;;;;;14.80;13.45;;;19.60;99.90;;;;;;5035032;28;20196;-65
2022/07/21 00:25:28;;;;;;;15.87;13.97;;;19.60;99.90;;;;;;5034022;28;20708;-65
2022/07/21 00:27:54;;;;;;;14.20;12.97;;;19.70;99.90;;;;;;5036996;28;20170;-65
2022/07/21 00:30:20;;;;;;;14.10;12.80;;;19.60;99.90;;;;;;5054141;28;20209;-65
2022/07/21 00:32:45;;;;;;;13.30;12.00;;;19.60;99.90;;;;;;5052695;28;20163;-65
2022/07/21 00:35:11;;;;;;;14.13;12.67;;;19.60;99.90;;;;;;5033621;28;20174;-67
2022/07/21 00:37:38;;;;;;;14.50;13.10;;;19.50;99.90;;;;;;5034130;28;20167;-65
2022/07/21 00:40:05;;;;;;;15.87;14.47;;;19.50;99.90;;;;;;5053102;28;20222;-66
2022/07/21 00:42:32;;;;;;;13.90;12.60;;;19.50;99.90;;;;;;5052500;28;20710;-66
2022/07/21 00:44:59;;;;;;;12.90;11.70;;;19.50;99.90;;;;;;5034698;28;20294;-66
2022/07/21 00:47:29;;;;;;;12.93;11.73;;;19.50;99.90;;;;;;5033781;28;20583;-66
2022/07/21 00:49:56;;;;;;;13.87;12.67;;;19.40;99.90;;;;;;5050889;28;20207;-66
2022/07/21 00:52:22;;;;;;;12.17;11.00;;;19.40;99.90;;;;;;5053708;28;20175;-66
2022/07/21 00:54:48;;;;;;;13.57;12.17;;;19.40;99.90;;;;;;5037077;28;20196;-66
2022/07/21 00:57:14;;;;;;;12.23;10.97;;;19.30;99.90;;;;;;5033245;28;20190;-66
2022/07/21 00:59:40;;;;;;;14.37;12.97;;;19.30;99.90;;;;;;5033765;28;20608;-66
2022/07/21 01:02:07;;;;;;;15.63;14.18;;;19.30;99.90;;;;;;5033806;28;20176;-65
2022/07/21 01:04:32;;;;;;;16.75;15.18;;;19.30;99.90;;;;;;5045560;28;20688;-66
2022/07/21 01:07:01;;;;;;;16.40;14.80;;;19.30;99.90;;;;;;5053365;28;20167;-66
2022/07/21 01:09:27;;;;;;;13.93;12.70;;;19.30;99.90;;;;;;5051477;28;20272;-65
2022/07/21 01:11:53;;;;;;;14.27;12.97;;;19.40;99.90;;;;;;5053197;28;20179;-66
2022/07/21 01:14:19;;;;;;;14.33;12.83;;;19.30;99.90;;;;;;5042077;28;20226;-66
2022/07/21 01:16:45;;;;;;;13.33;12.03;;;19.40;99.90;;;;;;5033398;28;20190;-65
2022/07/21 01:19:11;;;;;;;14.13;12.63;;;19.30;99.90;;;;;;5041483;28;20289;-66
2022/07/21 01:21:40;;;;;;;15.67;13.40;;;19.30;99.90;;;;;;5049160;28;20249;-65
2022/07/21 01:24:06;;;;;;;16.33;14.70;;;19.20;99.90;;;;;;5032656;28;20200;-65
2022/07/21 01:26:41;;;;;;;17.53;15.43;;;19.30;99.90;;;;;;5042278;28;20178;-65
2022/07/21 01:29:08;;;;;;;16.07;14.57;;;19.20;99.90;;;;;;5052693;28;20193;-67
2022/07/21 01:31:34;;;;;;;14.63;13.00;;;19.30;99.90;;;;;;5043769;28;20172;-65
2022/07/21 01:33:59;;;;;;;14.83;13.53;;;19.20;99.90;;;;;;5032571;28;20179;-66
2022/07/21 01:36:25;;;;;;;15.33;13.70;;;19.20;99.90;;;;;;5038659;28;20561;-66
2022/07/21 01:41:35;;;;;;;15.10;13.70;;;19.20;99.90;;;;;;5044980;28;20198;-65
2022/07/21 01:44:05;;;;;;;16.50;13.60;;;19.20;99.90;;;;;;5032340;28;20207;-65
2022/07/21 01:46:32;;;;;;;16.07;14.40;;;19.10;99.90;;;;;;5039130;28;20225;-65
2022/07/21 01:48:58;;;;;;;17.80;16.17;;;19.10;99.90;;;;;;5052414;28;20195;-66
2022/07/21 01:51:24;;;;;;;16.70;15.00;;;19.10;99.90;;;;;;5047408;28;20180;-66
2022/07/21 01:53:50;;;;;;;16.33;13.97;;;19.10;99.90;;;;;;5032184;28;20187;-65
2022/07/21 01:56:20;;;;;;;18.30;16.50;;;19.10;99.90;;;;;;5035275;28;20628;-66
2022/07/21 01:58:47;;;;;;;17.17;14.87;;;19.10;99.90;;;;;;5052476;28;20198;-65
2022/07/21 02:01:12;;;;;;;18.73;16.87;;;19.00;99.90;;;;;;5049996;28;20228;-65
2022/07/21 02:03:38;;;;;;;19.03;17.03;;;19.10;99.90;;;;;;5032112;28;20203;-65
2022/07/21 02:06:05;;;;;;;17.90;16.10;;;19.10;99.90;;;;;;5032168;28;20258;-65
2022/07/21 02:08:31;;;;;;;19.40;17.33;;;19.10;99.90;;;;;;5012733;28;20172;-65
2022/07/21 02:10:58;;;;;;;17.97;16.10;;;19.10;99.90;;;;;;5012164;28;20176;-65
2022/07/21 02:13:23;;;;;;;21.57;16.67;;;19.10;99.90;;;;;;5049399;28;20187;-66
2022/07/21 02:15:49;;;;;;;19.63;16.23;;;19.10;99.90;;;;;;5052075;28;20229;-65
2022/07/21 02:18:15;;;;;;;18.87;16.83;;;19.10;99.90;;;;;;5050294;28;20198;-65
2022/07/21 02:20:40;;;;;;;23.43;20.00;;;19.10;99.90;;;;;;5052096;28;20174;-65
2022/07/21 02:23:06;;;;;;;20.63;18.57;;;19.10;99.90;;;;;;5036821;28;20256;-66
2022/07/21 02:25:32;;;;;;;24.03;21.60;;;19.10;99.90;;;;;;5031738;28;20209;-65
2022/07/21 02:27:57;;;;;;;20.40;18.30;;;19.10;99.90;;;;;;5044546;28;20560;-66
2022/07/21 02:30:23;;;;;;;22.23;19.40;;;19.20;99.90;;;;;;5051974;28;20281;-65
2022/07/21 02:32:48;;;;;;;23.03;20.13;;;19.20;99.90;;;;;;5044226;28;20187;-66
2022/07/21 02:35:14;;;;;;;29.97;21.33;;;19.10;99.90;;;;;;5016776;28;20186;-65
2022/07/21 02:37:40;;;;;;;21.83;19.50;;;19.10;99.90;;;;;;5012122;28;20642;-65
2022/07/21 02:40:06;;;;;;;21.17;18.83;;;19.10;99.90;;;;;;5011938;28;20607;-66
2022/07/21 02:42:32;;;;;;;22.77;18.97;;;19.10;99.90;;;;;;5023594;28;20182;-65
2022/07/21 02:44:57;;;;;;;21.13;18.40;;;19.20;99.90;;;;;;5051249;28;20293;-65
2022/07/21 02:47:23;;;;;;;19.10;17.10;;;19.20;99.90;;;;;;5046371;28;20183;-66
2022/07/21 02:49:48;;;;;;;18.00;16.17;;;19.20;99.90;;;;;;5031637;28;20219;-66
2022/07/21 02:52:15;;;;;;;24.37;17.47;;;19.20;99.90;;;;;;5034462;28;20181;-65
2022/07/21 02:54:40;;;;;;;19.20;17.23;;;19.20;99.90;;;;;;5051273;28;20369;-65
2022/07/21 02:57:06;;;;;;;19.37;17.20;;;19.20;99.90;;;;;;5050034;28;20186;-65
2022/07/21 02:59:32;;;;;;;23.73;18.73;;;19.20;99.90;;;;;;5031429;28;20221;-65
2022/07/21 03:01:57;;;;;;;18.90;16.90;;;19.30;99.90;;;;;;5031406;28;20530;-65
2022/07/21 03:04:24;;;;;;;21.27;19.23;;;19.20;99.90;;;;;;5050415;28;20214;-66
2022/07/21 03:06:49;;;;;;;19.70;17.77;;;19.20;99.90;;;;;;5050136;28;20659;-66
2022/07/21 03:09:15;;;;;;;19.73;17.80;;;19.30;99.90;;;;;;5049697;28;20294;-65
2022/07/21 03:11:40;;;;;;;19.10;16.73;;;19.30;99.90;;;;;;5051648;28;20178;-65
2022/07/21 03:14:06;;;;;;;18.00;16.20;;;19.30;99.90;;;;;;5034922;28;20191;-65
2022/07/21 03:16:32;;;;;;;17.73;15.53;;;19.20;99.90;;;;;;5031525;28;20598;-65
2022/07/21 03:18:57;;;;;;;18.07;15.30;;;19.20;99.90;;;;;;5044810;28;20198;-65
2022/07/21 03:21:23;;;;;;;17.10;15.40;;;19.10;99.90;;;;;;5051932;28;20181;-65
2022/07/21 03:23:48;;;;;;;15.90;14.33;;;19.10;99.90;;;;;;5042691;28;20293;-65
2022/07/21 03:26:15;;;;;;;16.87;15.17;;;19.10;99.90;;;;;;5042650;28;20536;-65
2022/07/21 03:28:44;;;;;;;15.90;14.20;;;19.10;99.90;;;;;;5055222;28;20289;-66
2022/07/21 03:31:09;;;;;;;15.17;13.77;;;19.00;99.90;;;;;;5048858;28;20250;-65
2022/07/21 03:33:35;;;;;;;15.77;13.87;;;19.10;99.90;;;;;;5034868;28;20258;-65
2022/07/21 03:36:01;;;;;;;14.77;13.33;;;19.00;99.90;;;;;;5040426;28;20267;-65
2022/07/21 03:38:27;;;;;;;16.60;14.87;;;19.10;99.90;;;;;;5054977;28;20194;-65
2022/07/21 03:40:53;;;;;;;16.93;15.23;;;19.10;99.90;;;;;;5051032;28;20691;-65
2022/07/21 03:43:19;;;;;;;15.40;13.90;;;19.10;99.90;;;;;;5034841;28;20696;-66
2022/07/21 03:45:45;;;;;;;18.70;14.90;;;19.00;99.90;;;;;;5036513;28;20183;-66
2022/07/21 03:48:11;;;;;;;15.20;13.50;;;19.00;99.90;;;;;;5054805;28;20599;-66
2022/07/21 03:50:40;;;;;;;18.43;15.03;;;19.00;99.90;;;;;;5054444;28;20201;-68
2022/07/21 03:53:06;;;;;;;19.47;15.23;;;19.00;99.90;;;;;;5034728;28;20255;-66
2022/07/21 03:55:33;;;;;;;18.13;14.13;;;19.00;99.90;;;;;;5034472;28;20555;-66
2022/07/21 03:58:01;;;;;;;15.63;14.03;;;19.00;99.90;;;;;;5053539;28;20592;-66
2022/07/21 04:00:39;;;;;;;15.80;14.07;;;18.90;99.90;;;;;;5054779;28;20227;-66
2022/07/21 04:03:05;;;;;;;17.90;14.73;;;18.90;99.90;;;;;;5035352;28;20207;-65
2022/07/21 04:05:31;;;;;;;20.17;14.20;;;18.80;99.90;;;;;;5034338;28;20591;-67
2022/07/21 04:07:57;;;;;;;15.40;13.90;;;18.80;99.90;;;;;;5050400;28;20206;-67
2022/07/21 04:10:27;;;;;;;16.87;15.13;;;18.90;99.90;;;;;;5054453;28;20606;-66
2022/07/21 04:12:53;;;;;;;16.67;14.90;;;18.90;99.90;;;;;;5038138;28;20556;-66
2022/07/21 04:15:19;;;;;;;17.60;15.10;;;18.90;99.90;;;;;;5034208;28;20514;-66
2022/07/21 04:17:45;;;;;;;17.47;15.70;;;18.90;99.90;;;;;;5035584;28;20233;-65
2022/07/21 04:20:13;;;;;;;16.60;14.90;;;19.00;99.90;;;;;;5034203;28;20195;-68
2022/07/21 04:22:39;;;;;;;15.30;13.93;;;18.90;99.90;;;;;;5047105;28;20751;-65
2022/07/21 04:25:07;;;;;;;16.60;15.00;;;19.00;99.90;;;;;;5053711;28;20207;-66
2022/07/21 04:27:33;;;;;;;16.10;14.47;;;19.00;99.90;;;;;;5052503;28;20212;-66
2022/07/21 04:30:00;;;;;;;18.57;15.93;;;19.00;99.90;;;;;;5054000;28;20194;-67
2022/07/21 04:32:26;;;;;;;16.30;14.10;;;19.10;99.90;;;;;;5044149;28;20188;-66
2022/07/21 04:34:52;;;;;;;16.50;14.07;;;19.10;99.90;;;;;;5033787;28;20176;-66
2022/07/21 04:37:17;;;;;;;15.27;13.67;;;19.20;99.90;;;;;;5041494;28;20240;-65
2022/07/21 04:39:43;;;;;;;16.77;13.57;;;19.20;99.90;;;;;;5076747;22;20305;-65
2022/07/21 04:42:08;;;;;;;22.07;14.67;;;19.20;99.90;;;;;;5073162;28;20174;-65
2022/07/21 04:44:34;;;;;;;17.13;14.57;;;19.20;99.90;;;;;;5073096;28;20259;-65
2022/07/21 04:47:00;;;;;;;16.43;14.47;;;19.20;99.90;;;;;;5069135;28;20175;-65
2022/07/21 04:49:25;;;;;;;16.93;15.27;;;19.20;99.90;;;;;;5053763;28;20195;-66
2022/07/21 04:51:51;;;;;;;16.53;14.70;;;19.20;99.90;;;;;;5056358;28;20178;-65
2022/07/21 04:54:16;;;;;;;20.17;18.43;;;19.30;99.90;;;;;;5073195;28;20182;-66
2022/07/21 04:56:43;;;;;;;17.77;15.97;;;19.30;99.90;;;;;;5074020;28;20202;-65
2022/07/21 04:59:09;;;;;;;16.50;14.93;;;19.30;99.90;;;;;;5073579;28;20198;-65
2022/07/21 05:01:37;;;;;;;13.80;12.43;;;19.30;99.90;;;;;;5073350;28;20554;-65
2022/07/21 05:04:02;;;;;;;17.00;14.40;;;19.50;99.90;;;;;;5073117;28;20214;-65
2022/07/21 05:06:28;;;;;;;16.70;14.37;;;19.60;99.90;;;;;;5073177;28;20177;-65
2022/07/21 05:08:54;;;;;;;14.88;13.48;;;19.70;99.90;;;;;;5073286;28;20194;-65
2022/07/21 05:11:19;;;;;;;16.10;14.68;;;19.70;99.90;;;;;;5073378;28;20178;-65
2022/07/21 05:13:45;;;;;;;14.30;13.00;;;19.80;99.90;;;;;;5073205;28;20248;-65
2022/07/21 05:16:11;;;;;;;13.43;12.20;;;19.90;99.90;;;;;;5072943;28;20193;-65
2022/07/21 05:18:36;;;;;;;12.77;11.45;;;19.90;99.90;;;;;;5073054;28;20182;-65
2022/07/21 05:21:02;;;;;;;11.85;10.70;;;19.90;99.90;;;;;;5073131;28;20548;-65
2022/07/21 05:23:28;;;;;;;16.40;14.90;;;19.90;99.90;;;;;;5072514;28;20205;-65
2022/07/21 05:25:53;;;;;;;13.23;12.13;;;19.80;99.90;;;;;;5072918;28;20174;-65
2022/07/21 05:28:19;;;;;;;14.27;13.10;;;19.80;99.90;;;;;;5072967;28;20170;-65
2022/07/21 05:30:44;;;;;;;14.55;13.38;;;19.80;99.90;;;;;;5072007;28;20287;-65
2022/07/21 05:33:10;;;;;;;16.38;14.90;;;19.80;99.90;;;;;;5072861;28;20178;-65
2022/07/21 05:35:35;;;;;;;14.20;12.70;;;19.80;99.90;;;;;;5071796;28;20533;-65
2022/07/21 05:38:01;;;;;;;13.87;12.63;;;19.80;99.90;;;;;;5072767;28;20189;-65
2022/07/21 05:40:27;;;;;;;14.13;12.63;;;19.80;99.90;;;;;;5071927;28;20210;-65
2022/07/21 05:42:53;;;;;;;14.97;13.43;;;19.90;99.90;;;;;;5072694;28;20215;-65
2022/07/21 05:45:18;;;;;;;12.90;11.60;;;19.90;99.90;;;;;;5070559;28;20190;-65
2022/07/21 05:47:44;;;;;;;12.83;11.63;;;20.00;99.90;;;;;;5072669;28;20587;-65
2022/07/21 05:50:10;;;;;;;13.83;11.47;;;20.00;99.90;;;;;;5072136;28;20281;-64
2022/07/21 05:52:36;;;;;;;14.70;13.30;;;20.00;99.90;;;;;;5070979;28;20594;-65
2022/07/21 05:55:01;;;;;;;15.00;12.13;;;19.90;99.90;;;;;;5071708;28;20182;-65
2022/07/21 05:57:27;;;;;;;13.57;12.30;;;19.90;99.90;;;;;;5072324;28;20171;-65
2022/07/21 05:59:53;;;;;;;15.50;14.00;;;19.80;99.90;;;;;;5071936;28;20278;-65
2022/07/21 06:02:18;;;;;;;14.37;12.77;;;19.70;99.90;;;;;;5072173;28;20189;-65
2022/07/21 06:04:44;;;;;;;14.33;12.93;;;19.70;99.90;;;;;;5071645;28;20209;-65
2022/07/21 06:07:10;;;;;;;14.57;12.60;;;19.60;99.90;;;;;;5070818;28;20203;-65
2022/07/21 06:09:35;;;;;;;14.13;12.63;;;19.60;99.90;;;;;;5071755;28;20228;-65
2022/07/21 06:12:01;;;;;;;14.33;12.73;;;19.60;99.90;;;;;;5072052;28;20170;-65
2022/07/21 06:14:27;;;;;;;14.30;12.23;;;19.60;99.90;;;;;;5071971;28;20188;-65
2022/07/21 06:16:52;;;;;;;14.23;12.93;;;19.60;99.90;;;;;;5072027;28;20581;-65
2022/07/21 06:19:18;;;;;;;14.60;13.37;;;19.70;99.90;;;;;;5071471;28;20273;-65
2022/07/21 06:21:44;;;;;;;12.75;11.75;;;19.80;99.90;;;;;;5071814;28;20227;-65
2022/07/21 06:24:10;;;;;;;13.87;12.33;;;20.00;99.90;;;;;;5070822;28;20205;-65
2022/07/21 06:26:35;;;;;;;13.37;11.97;;;20.20;99.90;;;;;;5071784;28;20182;-65
2022/07/21 06:29:01;;;;;;;16.30;14.90;;;20.50;99.90;;;;;;5071430;28;20194;-66
2022/07/21 06:31:27;;;;;;;18.60;17.27;;;20.80;99.90;;;;;;5071793;28;20660;-66
2022/07/21 06:33:52;;;;;;;12.95;11.63;;;21.10;99.90;;;;;;5071174;28;20844;-65
2022/07/21 06:36:18;;;;;;;11.45;10.45;;;21.30;99.90;;;;;;5071611;28;20178;-65
2022/07/21 06:38:44;;;;;;;12.27;11.23;;;21.70;99.90;;;;;;5070273;28;20189;-66
2022/07/21 06:41:10;;;;;;;9.90;9.07;;;22.20;99.90;;;;;;5071640;28;20173;-65
2022/07/21 06:43:36;;;;;;;10.32;9.10;;;22.70;99.90;;;;;;5071248;28;20210;-65
2022/07/21 06:46:02;;;;;;;9.38;8.57;;;22.80;99.90;;;;;;5071017;28;20231;-65
2022/07/21 06:48:28;;;;;;;9.73;8.93;;;22.80;99.90;;;;;;5071724;28;20178;-66
2022/07/21 06:50:54;;;;;;;10.23;9.23;;;22.70;99.90;;;;;;5072191;28;20177;-66
2022/07/21 06:53:20;;;;;;;8.60;7.90;;;22.30;99.90;;;;;;5071851;28;20181;-65
2022/07/21 06:55:46;;;;;;;8.70;8.00;;;22.10;99.90;;;;;;5070973;28;20178;-66
2022/07/21 06:58:17;;;;;;;9.05;8.25;;;21.80;99.90;;;;;;5071495;28;20181;-65
2022/07/21 07:00:44;;;;;;;8.63;7.93;;;21.60;99.90;;;;;;5071613;28;20279;-66
2022/07/21 07:03:09;;;;;;;8.25;7.45;;;21.60;99.90;;;;;;5071371;28;20233;-66
2022/07/21 07:05:35;;;;;;;7.63;6.93;;;21.90;99.90;;;;;;5071150;28;20257;-66
2022/07/21 07:08:01;;;;;;;7.72;7.22;;;22.30;99.90;;;;;;5071389;28;20170;-66
2022/07/21 07:10:28;;;;;;;8.10;7.38;;;22.60;99.90;;;;;;5071567;28;20181;-66
2022/07/21 07:12:54;;;;;;;6.82;6.22;;;23.10;99.90;;;;;;5071407;28;20193;-64
2022/07/21 07:15:22;;;;;;;10.82;9.95;;;23.70;99.90;;;;;;5071145;28;20193;-65
2022/07/21 07:17:47;;;;;;;11.98;11.10;;;24.20;99.90;;;;;;5071249;28;20539;-65
2022/07/21 07:20:13;;;;;;;8.48;7.70;;;24.60;99.90;;;;;;5071303;28;20190;-65
2022/07/21 07:22:38;;;;;;;6.93;6.30;;;24.90;99.90;;;;;;5071611;28;20170;-65
2022/07/21 07:25:05;;;;;;;8.13;7.50;;;25.30;99.90;;;;;;5070847;28;20579;-65
2022/07/21 07:27:30;;;;;;;7.57;6.88;;;25.50;99.90;;;;;;5071178;28;20162;-65
2022/07/21 07:29:56;;;;;;;8.40;6.93;;;25.50;99.90;;;;;;5071198;28;20193;-65
2022/07/21 07:32:22;;;;;;;6.53;5.97;;;25.10;99.90;;;;;;5071287;28;20174;-65
2022/07/21 07:34:47;;;;;;;8.77;8.18;;;25.10;99.90;;;;;;5071196;28;20220;-65
2022/07/21 07:37:13;;;;;;;9.23;8.48;;;25.30;99.90;;;;;;5071019;28;20593;-65
2022/07/21 07:39:39;;;;;;;9.13;8.18;;;25.20;99.90;;;;;;5070874;28;20209;-64
2022/07/21 07:42:05;;;;;;;7.93;7.32;;;24.90;99.90;;;;;;5070985;28;20270;-65
2022/07/21 07:44:32;;;;;;;8.27;7.47;;;24.70;99.90;;;;;;5070297;28;20209;-65
2022/07/21 07:46:58;;;;;;;7.88;7.22;;;24.80;99.90;;;;;;5070256;28;20216;-65
2022/07/21 07:49:24;;;;;;;8.05;7.35;;;24.80;99.90;;;;;;5071166;28;20198;-65
2022/07/21 07:51:49;;;;;;;9.52;8.73;;;24.90;99.90;;;;;;5070970;28;20257;-65
2022/07/21 07:54:15;;;;;;;7.70;7.03;;;24.80;99.90;;;;;;5070059;28;20515;-65
2022/07/21 07:56:42;;;;;;;8.13;7.53;;;24.90;99.90;;;;;;5071063;28;20179;-65
2022/07/21 07:59:08;;;;;;;10.18;9.27;;;24.90;99.90;;;;;;5070837;28;20534;-64
2022/07/21 08:01:33;;;;;;;8.98;8.18;;;24.80;99.90;;;;;;5070771;28;20192;-65
2022/07/21 08:03:59;;;;;;;10.60;9.70;;;25.10;99.90;;;;;;5070558;28;20198;-65
2022/07/21 08:06:24;;;;;;;9.48;6.45;;;25.70;99.90;;;;;;5070905;28;20224;-65
2022/07/21 08:08:50;;;;;;;8.00;5.72;;;26.50;99.90;;;;;;5073705;28;20224;-63
2022/07/21 08:11:15;;;;;;;6.50;5.97;;;27.10;99.90;;;;;;5074440;28;20177;-65
2022/07/21 08:13:41;;;;;;;9.23;5.65;;;27.50;99.90;;;;;;5074138;28;20186;-65
2022/07/21 08:16:07;;;;;;;7.45;5.97;;;27.90;99.90;;;;;;5074340;28;20583;-65
2022/07/21 08:18:33;;;;;;;8.45;6.35;;;28.20;99.90;;;;;;5073039;28;20201;-65
2022/07/21 08:20:59;;;;;;;9.27;6.15;;;28.20;99.90;;;;;;5074339;28;20170;-65
2022/07/21 08:23:25;;;;;;;6.63;6.03;;;28.40;99.90;;;;;;5074112;28;20540;-65
2022/07/21 08:25:50;;;;;;;6.78;6.20;;;28.30;99.90;;;;;;5074134;28;20575;-65
2022/07/21 08:28:16;;;;;;;6.82;6.13;;;28.30;99.90;;;;;;5074413;28;20205;-65
2022/07/21 08:30:42;;;;;;;7.03;6.40;;;28.10;99.90;;;;;;5074170;28;20194;-65
2022/07/21 08:33:08;;;;;;;8.13;6.45;;;27.60;99.90;;;;;;5074265;28;20166;-65
2022/07/21 08:35:34;;;;;;;8.05;6.78;;;27.20;99.90;;;;;;5073675;28;20170;-65
2022/07/21 08:38:03;;;;;;;7.30;6.57;;;26.80;99.90;;;;;;5074083;28;20602;-65
2022/07/21 08:40:32;;;;;;;6.65;6.15;;;26.60;99.90;;;;;;5073932;28;20548;-64
2022/07/21 08:42:57;;;;;;;8.77;7.35;;;26.60;99.90;;;;;;5073808;28;20174;-64
2022/07/21 08:45:23;;;;;;;7.38;6.68;;;26.70;99.90;;;;;;5073045;28;20174;-64
2022/07/21 08:47:52;;;;;;;8.68;6.47;;;26.90;99.90;;;;;;5073865;28;20545;-65
2022/07/21 08:50:18;;;;;;;7.63;6.75;;;27.00;99.90;;;;;;5073661;28;20193;-65
2022/07/21 08:52:44;;;;;;;8.20;5.85;;;27.00;99.90;;;;;;5073788;28;20166;-65
2022/07/21 08:55:09;;;;;;;9.30;7.28;;;26.80;99.90;;;;;;5072768;28;20174;-65
2022/07/21 08:57:38;;;;;;;8.13;7.35;;;26.40;99.90;;;;;;5073569;28;20170;-65
2022/07/21 09:00:05;;;;;;;8.13;7.13;;;26.10;99.90;;;;;;5073500;28;20194;-67
2022/07/21 09:02:33;;;;;;;10.07;8.63;;;25.90;99.90;;;;;;5073646;28;20279;-65
2022/07/21 09:05:00;;;;;;;9.82;8.65;;;25.80;99.90;;;;;;5073030;28;20661;-64
2022/07/21 09:07:26;;;;;;;9.52;8.73;;;25.70;99.90;;;;;;5073474;28;20174;-65
2022/07/21 09:09:56;;;;;;;9.40;8.27;;;25.50;99.90;;;;;;5073186;28;20194;-65
2022/07/21 09:12:21;;;;;;;7.45;6.80;;;25.80;99.90;;;;;;5073769;28;20208;-64
2022/07/21 09:14:47;;;;;;;7.05;6.43;;;25.80;99.90;;;;;;5073291;28;20170;-66
2022/07/21 09:17:12;;;;;;;7.00;6.30;;;25.90;99.90;;;;;;5073455;28;20456;-64
2022/07/21 09:19:41;;;;;;;7.07;6.45;;;25.60;99.90;;;;;;5067051;28;20194;-65
2022/07/21 09:22:18;;;;;;;6.55;5.95;;;25.50;99.90;;;;;;5072966;28;20209;-65
2022/07/21 09:24:51;;;;;;;6.78;6.28;;;25.60;99.90;;;;;;5072689;28;20198;-65
2022/07/21 09:27:24;;;;;;;6.38;5.88;;;25.80;99.90;;;;;;5072921;28;20265;-65
2022/07/21 09:29:58;;;;;;;8.43;5.88;;;25.90;99.90;;;;;;5072800;28;20244;-64
2022/07/21 09:32:32;;;;;;;6.50;5.93;;;26.10;99.90;;;;;;5073129;28;20162;-65
2022/07/21 09:35:07;;;;;;;6.13;5.53;;;26.00;99.90;;;;;;5072537;28;20630;-65
2022/07/21 09:37:33;;;;;;;7.38;5.63;;;26.00;99.90;;;;;;5072950;28;20169;-65
2022/07/21 09:40:06;;;;;;;6.82;5.88;;;25.80;99.90;;;;;;5072200;28;20365;-65
2022/07/21 09:42:35;;;;;;;5.53;5.05;;;25.70;99.90;;;;;;5072940;28;20181;-65
2022/07/21 09:45:09;;;;;;;6.32;5.72;;;25.70;99.90;;;;;;5072328;28;20541;-65
2022/07/21 09:47:38;;;;;;;5.35;4.85;;;25.70;99.90;;;;;;5072556;28;20684;-65
2022/07/21 09:50:05;;;;;;;8.85;6.15;;;25.90;99.90;;;;;;5072194;28;20202;-65
2022/07/21 09:52:34;;;;;;;7.50;5.47;;;26.10;99.90;;;;;;5071785;28;20185;-65
2022/07/21 09:55:02;;;;;;;6.55;6.05;;;26.20;99.90;;;;;;5071933;28;20181;-65
2022/07/21 09:57:28;;;;;;;6.60;5.88;;;26.50;99.90;;;;;;5072591;28;20256;-65
2022/07/21 09:59:54;;;;;;;7.50;5.82;;;26.80;99.90;;;;;;5072055;28;20202;-65
2022/07/21 10:02:26;;;;;;;6.15;5.55;;;26.90;99.90;;;;;;5071876;28;20182;-65
2022/07/21 10:04:55;;;;;;;11.93;6.57;;;26.90;99.90;;;;;;5072084;28;20217;-64
2022/07/21 10:07:22;;;;;;;6.18;5.40;;;26.90;99.90;;;;;;5071949;28;20188;-66
2022/07/21 10:09:48;;;;;;;6.75;6.13;;;26.90;99.90;;;;;;5072076;28;20201;-64
2022/07/21 10:12:15;;;;;;;7.05;5.70;;;26.50;99.90;;;;;;5069816;28;20178;-65
2022/07/21 10:14:42;;;;;;;6.68;5.97;;;26.20;99.90;;;;;;5071541;28;20565;-65
2022/07/21 10:17:08;;;;;;;7.70;5.55;;;25.80;99.90;;;;;;5071608;28;20178;-65
2022/07/21 10:19:59;;;;;;;9.00;8.10;;;25.30;99.90;;;;;;5071848;28;20224;-65
2022/07/21 10:22:40;;;;;;;7.95;7.25;;;24.60;99.90;;;;;;5073373;28;20220;-64
2022/07/21 10:25:06;;;;;;;9.18;8.57;;;24.30;99.90;;;;;;5071309;28;20209;-64
2022/07/21 10:27:32;;;;;;;7.28;6.57;;;24.00;99.90;;;;;;5070684;28;20186;-65
2022/07/21 10:30:01;;;;;;;6.78;6.18;;;23.90;99.90;;;;;;5070640;28;20277;-65
2022/07/21 10:32:50;;;;;;;7.30;6.70;;;23.70;99.90;;;;;;5072012;28;20574;-65
2022/07/21 10:35:26;;;;;;;6.95;6.35;;;23.50;99.90;;;;;;5070714;28;20201;-64
2022/07/21 10:37:52;;;;;;;8.20;6.72;;;23.30;99.90;;;;;;5071690;28;20177;-64
2022/07/21 10:40:20;;;;;;;10.27;7.28;;;23.10;99.90;;;;;;5082623;22;20234;-66
2022/07/21 10:43:06;;;;;;;8.57;7.22;;;22.90;99.90;;;;;;5066798;28;20515;-65
2022/07/21 10:45:33;;;;;;;8.52;7.32;;;22.70;99.90;;;;;;5059939;28;20277;-66
2022/07/21 10:48:00;;;;;;;8.88;8.05;;;22.50;99.90;;;;;;5070244;28;20625;-66
2022/07/21 10:50:38;;;;;;;9.73;8.82;;;22.30;99.90;;;;;;5059571;28;20675;-66
2022/07/21 10:53:18;;;;;;;10.30;9.10;;;22.00;99.90;;;;;;5050202;28;20181;-66
2022/07/21 10:55:48;;;;;;;12.68;9.93;;;21.80;99.90;;;;;;5051042;28;20182;-66
2022/07/21 10:58:23;;;;;;;12.10;9.68;;;21.80;99.90;;;;;;5051425;28;20198;-66
2022/07/21 11:00:59;;;;;;;12.30;11.18;;;21.90;99.90;;;;;;5051309;28;20217;-66
2022/07/21 11:03:33;;;;;;;11.55;10.38;;;21.70;99.90;;;;;;5050566;28;20728;-66
2022/07/21 11:06:21;;;;;;;14.05;12.60;;;21.50;99.90;;;;;;5050399;28;20202;-66
2022/07/21 11:08:47;;;;;;;12.10;11.00;;;21.40;99.90;;;;;;5050214;28;20182;-67
2022/07/21 11:11:21;;;;;;;15.10;13.70;;;21.20;99.90;;;;;;5070018;28;20726;-66
2022/07/21 11:14:04;;;;;;;14.45;12.40;;;21.00;99.90;;;;;;5049338;28;20186;-66
2022/07/21 11:16:46;;;;;;;15.23;12.43;;;20.90;99.90;;;;;;5051413;28;20220;-66
2022/07/21 11:19:34;;;;;;;15.00;13.70;;;20.80;99.90;;;;;;5051216;28;20182;-68
2022/07/21 11:22:21;;;;;;;14.20;12.90;;;20.70;99.90;;;;;;5051027;28;20183;-68
2022/07/21 11:24:48;;;;;;;18.73;15.23;;;20.60;99.90;;;;;;5050347;28;20337;-68
2022/07/21 11:27:19;;;;;;;15.33;13.90;;;20.50;99.90;;;;;;5050463;28;20265;-66
2022/07/21 11:29:46;;;;;;;18.73;16.83;;;20.40;99.90;;;;;;5050880;28;20195;-68
2022/07/21 11:32:14;;;;;;;15.57;14.07;;;20.40;99.90;;;;;;5049111;28;20674;-66
2022/07/21 11:35:06;;;;;;;15.93;14.70;;;20.30;99.90;;;;;;5048882;28;20178;-67
2022/07/21 11:37:43;;;;;;;18.17;16.17;;;20.10;99.90;;;;;;5049176;28;20648;-69
2022/07/21 11:40:17;;;;;;;15.80;14.17;;;20.10;99.90;;;;;;5029827;28;20218;-69
2022/07/21 11:42:45;;;;;;;16.67;14.93;;;19.90;99.90;;;;;;5033124;28;20170;-68
2022/07/21 11:45:12;;;;;;;15.30;14.00;;;19.70;99.90;;;;;;5054732;28;20210;-69
2022/07/21 11:47:38;;;;;;;18.77;14.50;;;19.60;99.90;;;;;;5053752;28;20538;-69
2022/07/21 11:50:07;;;;;;;14.77;13.27;;;19.60;99.90;;;;;;5054859;28;20273;-69
2022/07/21 11:52:36;;;;;;;19.30;14.57;;;19.50;99.90;;;;;;5054892;28;20170;-68
2022/07/21 11:55:04;;;;;;;16.40;14.70;;;19.50;99.90;;;;;;5051788;28;20182;-69
2022/07/21 11:57:30;;;;;;;18.63;14.70;;;19.50;99.90;;;;;;5054750;28;20174;-68
2022/07/21 11:59:59;;;;;;;15.20;13.70;;;19.60;99.90;;;;;;5053690;28;20603;-67
2022/07/21 12:02:29;;;;;;;14.83;12.77;;;19.60;99.90;;;;;;5054768;28;20178;-66
2022/07/21 12:04:58;;;;;;;14.07;12.80;;;19.50;99.90;;;;;;5050964;28;20679;-66
2022/07/21 12:07:31;;;;;;;13.83;12.53;;;19.50;99.90;;;;;;5069846;28;20572;-67
2022/07/21 12:10:13;;;;;;;14.57;13.07;;;19.40;99.90;;;;;;5053984;28;20252;-69
2022/07/21 12:12:44;;;;;;;14.57;13.23;;;19.30;99.90;;;;;;5052808;28;20178;-67
2022/07/21 12:15:22;;;;;;;14.80;13.17;;;19.30;99.90;;;;;;5054108;28;20547;-70
2022/07/21 12:17:53;;;;;;;15.00;13.57;;;19.30;99.90;;;;;;5054221;28;20582;-66
2022/07/21 12:20:30;;;;;;;16.03;13.30;;;19.30;99.90;;;;;;5054364;28;20187;-70
2022/07/21 12:22:58;;;;;;;13.97;12.67;;;19.30;99.90;;;;;;5054095;28;20194;-69
2022/07/21 12:25:40;;;;;;;15.97;14.47;;;19.30;99.90;;;;;;5053908;28;20241;-69
2022/07/21 12:28:06;;;;;;;15.57;14.10;;;19.40;99.90;;;;;;5053980;28;20167;-69
2022/07/21 12:30:39;;;;;;;14.97;13.17;;;19.30;99.90;;;;;;5054258;28;20460;-69
2022/07/21 12:33:20;;;;;;;15.80;14.27;;;19.30;99.90;;;;;;5052385;28;20171;-69
2022/07/21 12:36:03;;;;;;;16.77;13.57;;;19.20;99.90;;;;;;5053930;28;20250;-69
2022/07/21 12:38:40;;;;;;;17.03;13.63;;;19.20;99.90;;;;;;5052816;28;20297;-69